Time;durP1;ratioP1;P1;durP2;ratioP2;P2;SDS_P1;SDS_P2;PMS_P1;PMS_P2;Temp;Humidity;BMP_temperature;BMP_pressure;BME280_temperature;BME280_humidity;BME280_pressure;Samples;Min_cycle;Max_cycle;Signal;HPM_P1;HPM_P2
2024/03/27 00:01:10;;;;;;;13.65;5.30;;;;;;;;;;5072725;28;20196;-73
2024/03/27 00:03:37;;;;;;;9.38;5.45;;;;;;;;;;5080392;28;20180;-73
2024/03/27 00:06:05;;;;;;;10.18;5.03;;;;;;;;;;5081698;28;20214;-73
2024/03/27 00:08:31;;;;;;;8.95;5.10;;;;;;;;;;5084253;28;20219;-73
2024/03/27 00:10:58;;;;;;;8.95;4.97;;;;;;;;;;5080471;28;20180;-73
2024/03/27 00:13:24;;;;;;;9.10;4.95;;;;;;;;;;5081386;28;20184;-73
2024/03/27 00:15:50;;;;;;;7.22;4.63;;;;;;;;;;5082590;28;20191;-73
2024/03/27 00:18:16;;;;;;;7.00;3.95;;;;;;;;;;5079756;28;20250;-73
2024/03/27 00:20:41;;;;;;;8.30;4.53;;;;;;;;;;5081675;28;20214;-72
2024/03/27 00:23:07;;;;;;;7.82;4.10;;;;;;;;;;5083787;28;20185;-72
2024/03/27 00:25:32;;;;;;;7.90;4.13;;;;;;;;;;5082966;28;20237;-72
2024/03/27 00:27:57;;;;;;;9.20;4.15;;;;;;;;;;5080155;28;20722;-73
2024/03/27 00:30:23;;;;;;;9.05;4.40;;;;;;;;;;5063126;28;20859;-71
2024/03/27 00:32:48;;;;;;;8.25;4.47;;;;;;;;;;5080259;28;20180;-72
2024/03/27 00:35:14;;;;;;;5.65;3.80;;;;;;;;;;5100964;27;20202;-72
2024/03/27 00:37:39;;;;;;;7.78;4.00;;;;;;;;;;5079963;28;20266;-73
2024/03/27 00:40:08;;;;;;;5.80;3.85;;;;;;;;;;5080180;28;20654;-72
2024/03/27 00:42:34;;;;;;;6.78;4.03;;;;;;;;;;5081909;28;20183;-72
2024/03/27 00:45:00;;;;;;;6.28;4.10;;;;;;;;;;5081304;28;20195;-72
2024/03/27 00:47:26;;;;;;;8.38;3.88;;;;;;;;;;5081812;28;20241;-72
2024/03/27 00:49:52;;;;;;;6.88;3.80;;;;;;;;;;5079876;28;20192;-73
2024/03/27 00:52:18;;;;;;;8.90;4.00;;;;;;;;;;5082111;28;20180;-72
2024/03/27 00:54:44;;;;;;;7.38;3.92;;;;;;;;;;5081339;28;20215;-72
2024/03/27 00:57:11;;;;;;;8.15;3.67;;;;;;;;;;5082730;28;20624;-72
2024/03/27 00:59:36;;;;;;;8.90;3.60;;;;;;;;;;5083533;28;20187;-72
2024/03/27 01:02:02;;;;;;;6.97;3.38;;;;;;;;;;5078044;28;20199;-72
2024/03/27 01:04:27;;;;;;;5.20;3.53;;;;;;;;;;5081436;28;20519;-72
2024/03/27 01:06:52;;;;;;;6.45;3.50;;;;;;;;;;5084048;28;20531;-72
2024/03/27 01:09:18;;;;;;;9.00;3.83;;;;;;;;;;5082488;28;20200;-72
2024/03/27 01:11:44;;;;;;;5.47;3.28;;;;;;;;;;5082378;28;20207;-72
2024/03/27 01:14:10;;;;;;;5.63;3.60;;;;;;;;;;5081428;28;20184;-72
2024/03/27 01:16:36;;;;;;;8.07;3.25;;;;;;;;;;5077243;28;20694;-72
2024/03/27 01:19:01;;;;;;;4.50;3.13;;;;;;;;;;5083500;28;20216;-72
2024/03/27 01:21:27;;;;;;;8.02;3.25;;;;;;;;;;5082360;28;20189;-73
2024/03/27 01:23:53;;;;;;;7.50;3.30;;;;;;;;;;5082117;28;20200;-73
2024/03/27 01:26:19;;;;;;;5.53;3.20;;;;;;;;;;5083979;28;20188;-73
2024/03/27 01:28:44;;;;;;;6.00;2.92;;;;;;;;;;5084690;28;20554;-73
2024/03/27 01:31:10;;;;;;;3.60;2.63;;;;;;;;;;5085997;28;20180;-73
2024/03/27 01:33:35;;;;;;;7.97;3.63;;;;;;;;;;5084937;28;20192;-73
2024/03/27 01:36:01;;;;;;;6.07;3.50;;;;;;;;;;5084798;28;20184;-73
2024/03/27 01:38:26;;;;;;;6.25;3.17;;;;;;;;;;5086224;28;20231;-73
2024/03/27 01:40:52;;;;;;;5.68;3.00;;;;;;;;;;5084129;28;20643;-73
2024/03/27 01:43:17;;;;;;;5.75;3.70;;;;;;;;;;5085584;28;20188;-73
2024/03/27 01:45:42;;;;;;;4.80;3.25;;;;;;;;;;5080133;28;23465;-73
2024/03/27 01:48:08;;;;;;;6.53;3.20;;;;;;;;;;5084973;28;20253;-73
2024/03/27 01:50:34;;;;;;;5.13;3.75;;;;;;;;;;5085791;28;20184;-73
2024/03/27 01:53:00;;;;;;;8.15;3.33;;;;;;;;;;5085105;28;20595;-73
2024/03/27 01:55:26;;;;;;;4.45;3.03;;;;;;;;;;5085999;28;20188;-73
2024/03/27 01:57:52;;;;;;;5.65;3.22;;;;;;;;;;5085203;28;20211;-73
2024/03/27 02:00:20;;;;;;;6.82;3.53;;;;;;;;;;5082230;28;21117;-73
2024/03/27 02:02:46;;;;;;;5.85;3.35;;;;;;;;;;5086664;28;20180;-73
2024/03/27 02:05:12;;;;;;;10.15;3.58;;;;;;;;;;5085839;28;20302;-73
2024/03/27 02:07:39;;;;;;;6.32;3.28;;;;;;;;;;5084665;28;20196;-73
2024/03/27 02:10:05;;;;;;;6.80;3.75;;;;;;;;;;5085463;28;20660;-73
2024/03/27 02:12:31;;;;;;;5.45;3.78;;;;;;;;;;5085164;28;20260;-73
2024/03/27 02:14:56;;;;;;;7.38;3.90;;;;;;;;;;5086264;28;20632;-73
2024/03/27 02:17:21;;;;;;;7.38;3.45;;;;;;;;;;5085120;28;20208;-73
2024/03/27 02:19:47;;;;;;;6.28;3.80;;;;;;;;;;5084507;28;20212;-73
2024/03/27 02:22:12;;;;;;;5.03;3.42;;;;;;;;;;5085921;28;20192;-73
2024/03/27 02:24:48;;;;;;;6.78;3.80;;;;;;;;;;5086214;28;20678;-73
2024/03/27 02:27:14;;;;;;;8.27;3.60;;;;;;;;;;5084834;28;20188;-73
2024/03/27 02:29:40;;;;;;;5.93;3.50;;;;;;;;;;5082745;28;20359;-74
2024/03/27 02:32:05;;;;;;;6.35;3.92;;;;;;;;;;5085599;28;20701;-74
2024/03/27 02:34:31;;;;;;;5.97;3.72;;;;;;;;;;5085154;28;20195;-73
2024/03/27 02:36:56;;;;;;;6.68;3.53;;;;;;;;;;5084881;28;20230;-74
2024/03/27 02:39:21;;;;;;;5.78;3.67;;;;;;;;;;5085526;28;20270;-73
2024/03/27 02:41:47;;;;;;;5.78;3.78;;;;;;;;;;5066299;28;20643;-73
2024/03/27 02:44:12;;;;;;;5.47;3.60;;;;;;;;;;5086705;28;20515;-73
2024/03/27 02:46:38;;;;;;;4.90;3.40;;;;;;;;;;5084977;28;20332;-73
2024/03/27 02:49:03;;;;;;;5.13;3.58;;;;;;;;;;5086358;28;20216;-73
2024/03/27 02:51:29;;;;;;;6.07;3.88;;;;;;;;;;5084065;28;20576;-73
2024/03/27 02:53:54;;;;;;;5.03;3.83;;;;;;;;;;5084449;28;20192;-73
2024/03/27 02:56:19;;;;;;;6.20;3.28;;;;;;;;;;5067764;28;20253;-73
2024/03/27 02:58:45;;;;;;;9.52;3.83;;;;;;;;;;5085915;28;20222;-73
2024/03/27 03:01:10;;;;;;;7.05;3.88;;;;;;;;;;5082658;28;20191;-73
2024/03/27 03:03:36;;;;;;;7.47;3.80;;;;;;;;;;5084983;28;20212;-73
2024/03/27 03:06:01;;;;;;;6.60;3.75;;;;;;;;;;5083271;28;20207;-73
2024/03/27 03:08:27;;;;;;;5.18;3.38;;;;;;;;;;5085501;28;20187;-74
2024/03/27 03:10:53;;;;;;;5.80;3.45;;;;;;;;;;5085095;28;20189;-73
2024/03/27 03:13:19;;;;;;;7.32;3.47;;;;;;;;;;5085730;28;20184;-73
2024/03/27 03:15:44;;;;;;;7.18;3.97;;;;;;;;;;5082783;28;20291;-73
2024/03/27 03:18:10;;;;;;;5.40;3.80;;;;;;;;;;5083878;28;20401;-73
2024/03/27 03:20:36;;;;;;;5.47;3.72;;;;;;;;;;5081677;28;20284;-73
2024/03/27 03:23:01;;;;;;;5.35;3.75;;;;;;;;;;5085475;28;20181;-73
2024/03/27 03:25:27;;;;;;;7.68;3.80;;;;;;;;;;5083981;28;20184;-73
2024/03/27 03:27:52;;;;;;;7.45;4.10;;;;;;;;;;5085445;28;20202;-73
2024/03/27 03:30:17;;;;;;;10.48;3.80;;;;;;;;;;5084215;28;20242;-73
2024/03/27 03:32:43;;;;;;;7.95;4.03;;;;;;;;;;5084619;28;20184;-73
2024/03/27 03:35:10;;;;;;;5.72;3.70;;;;;;;;;;5083631;28;20184;-73
2024/03/27 03:37:36;;;;;;;7.72;3.47;;;;;;;;;;5082544;28;20260;-73
2024/03/27 03:40:03;;;;;;;5.28;3.50;;;;;;;;;;5083292;28;20239;-73
2024/03/27 03:42:28;;;;;;;9.13;4.55;;;;;;;;;;5082352;28;20184;-72
2024/03/27 03:44:54;;;;;;;6.82;3.63;;;;;;;;;;5084620;28;20513;-72
2024/03/27 03:47:19;;;;;;;6.22;3.67;;;;;;;;;;5083711;28;20615;-73
2024/03/27 03:49:45;;;;;;;6.57;3.80;;;;;;;;;;5084222;28;20317;-73
2024/03/27 03:52:10;;;;;;;6.32;3.42;;;;;;;;;;5084295;28;20269;-73
2024/03/27 03:54:36;;;;;;;6.68;3.83;;;;;;;;;;5082149;28;20317;-73
2024/03/27 03:57:01;;;;;;;8.35;3.97;;;;;;;;;;5084500;28;20341;-72
2024/03/27 03:59:27;;;;;;;6.72;3.78;;;;;;;;;;5083647;28;20208;-73
2024/03/27 04:01:52;;;;;;;6.43;3.92;;;;;;;;;;5083250;28;20188;-73
2024/03/27 04:04:17;;;;;;;6.03;4.32;;;;;;;;;;5081913;28;20199;-72
2024/03/27 04:06:43;;;;;;;6.13;3.67;;;;;;;;;;5084238;28;20211;-72
2024/03/27 04:09:08;;;;;;;7.60;3.63;;;;;;;;;;5085523;28;20543;-72
2024/03/27 04:11:34;;;;;;;6.28;3.95;;;;;;;;;;5080988;28;20706;-72
2024/03/27 04:13:59;;;;;;;4.80;3.70;;;;;;;;;;5083152;28;20218;-72
2024/03/27 04:16:25;;;;;;;7.85;4.00;;;;;;;;;;5082563;28;20340;-72
2024/03/27 04:18:50;;;;;;;8.50;3.97;;;;;;;;;;5083030;28;20212;-72
2024/03/27 04:21:16;;;;;;;10.15;4.40;;;;;;;;;;5083585;28;20271;-73
2024/03/27 04:23:41;;;;;;;5.60;3.67;;;;;;;;;;5084802;28;20195;-73
2024/03/27 04:26:07;;;;;;;7.85;3.88;;;;;;;;;;5083769;28;20681;-73
2024/03/27 04:28:32;;;;;;;6.53;4.07;;;;;;;;;;5082007;28;20205;-72
2024/03/27 04:31:03;;;;;;;8.00;3.83;;;;;;;;;;5081626;28;20196;-72
2024/03/27 04:33:28;;;;;;;7.53;4.35;;;;;;;;;;5082616;28;20184;-73
2024/03/27 04:35:54;;;;;;;4.50;3.63;;;;;;;;;;5081553;28;20287;-72
2024/03/27 04:38:19;;;;;;;8.15;4.07;;;;;;;;;;5081409;28;20220;-73
2024/03/27 04:40:45;;;;;;;7.75;4.30;;;;;;;;;;5083742;28;20237;-73
2024/03/27 04:43:11;;;;;;;8.27;4.57;;;;;;;;;;5083386;28;20188;-72
2024/03/27 04:45:36;;;;;;;7.43;4.20;;;;;;;;;;5082442;28;20195;-72
2024/03/27 04:48:01;;;;;;;11.30;4.53;;;;;;;;;;5084061;28;20659;-72
2024/03/27 04:50:27;;;;;;;7.57;4.28;;;;;;;;;;5082970;28;20199;-73
2024/03/27 04:52:52;;;;;;;5.13;3.75;;;;;;;;;;5081975;28;20227;-73
2024/03/27 04:55:18;;;;;;;8.50;4.38;;;;;;;;;;5083552;28;20198;-73
2024/03/27 04:57:43;;;;;;;6.95;4.18;;;;;;;;;;5082900;28;20283;-73
2024/03/27 05:00:12;;;;;;;6.63;3.90;;;;;;;;;;5087666;28;20213;-74
2024/03/27 05:02:40;;;;;;;6.45;4.22;;;;;;;;;;5084656;28;20676;-74
2024/03/27 05:05:06;;;;;;;6.00;3.92;;;;;;;;;;5086750;28;20181;-74
2024/03/27 05:07:32;;;;;;;8.48;4.00;;;;;;;;;;5086260;28;20181;-74
2024/03/27 05:09:58;;;;;;;6.88;4.82;;;;;;;;;;5084488;28;20192;-74
2024/03/27 05:12:24;;;;;;;6.78;4.35;;;;;;;;;;5085206;28;20227;-74
2024/03/27 05:14:49;;;;;;;6.72;4.38;;;;;;;;;;5084669;28;20669;-74
2024/03/27 05:17:14;;;;;;;6.82;4.20;;;;;;;;;;5085895;28;20208;-74
2024/03/27 05:19:40;;;;;;;8.95;4.28;;;;;;;;;;5087125;28;20454;-74
2024/03/27 05:22:05;;;;;;;9.18;4.25;;;;;;;;;;5087619;28;20176;-73
2024/03/27 05:24:31;;;;;;;8.48;4.53;;;;;;;;;;5086860;28;20200;-74
2024/03/27 05:26:57;;;;;;;7.45;4.35;;;;;;;;;;5085268;28;20190;-74
2024/03/27 05:29:23;;;;;;;6.80;4.10;;;;;;;;;;5085435;28;20192;-74
2024/03/27 05:31:49;;;;;;;6.40;4.47;;;;;;;;;;5085645;28;20236;-74
2024/03/27 05:34:15;;;;;;;7.88;4.38;;;;;;;;;;5085226;28;20188;-73
2024/03/27 05:36:41;;;;;;;8.25;4.72;;;;;;;;;;5084248;28;20241;-73
2024/03/27 05:39:08;;;;;;;7.55;4.28;;;;;;;;;;5086178;28;20263;-73
2024/03/27 05:41:34;;;;;;;9.20;4.35;;;;;;;;;;5083985;28;20188;-73
2024/03/27 05:43:59;;;;;;;8.70;4.57;;;;;;;;;;5085261;28;20195;-74
2024/03/27 05:46:25;;;;;;;8.57;4.20;;;;;;;;;;5085914;28;20197;-74
2024/03/27 05:48:50;;;;;;;8.95;4.70;;;;;;;;;;5084673;28;20223;-73
2024/03/27 05:51:17;;;;;;;7.07;4.28;;;;;;;;;;5086310;28;20202;-73
2024/03/27 05:53:42;;;;;;;9.15;4.32;;;;;;;;;;5083329;28;20235;-73
2024/03/27 05:56:08;;;;;;;9.25;5.03;;;;;;;;;;5084963;28;20184;-74
2024/03/27 05:58:33;;;;;;;8.35;4.72;;;;;;;;;;5085614;28;20214;-74
2024/03/27 06:00:59;;;;;;;6.82;4.47;;;;;;;;;;5086117;28;20188;-73
2024/03/27 06:03:24;;;;;;;9.07;4.90;;;;;;;;;;5085659;28;20200;-74
2024/03/27 06:05:50;;;;;;;8.68;4.97;;;;;;;;;;5085592;28;20192;-74
2024/03/27 06:08:15;;;;;;;9.32;4.95;;;;;;;;;;5083944;28;20667;-74
2024/03/27 06:10:42;;;;;;;7.40;4.40;;;;;;;;;;5085235;28;20624;-74
2024/03/27 06:13:07;;;;;;;10.65;4.70;;;;;;;;;;5086717;28;20227;-74
2024/03/27 06:15:33;;;;;;;7.78;4.55;;;;;;;;;;5084915;28;20655;-74
2024/03/27 06:18:02;;;;;;;7.72;4.03;;;;;;;;;;5085897;28;20239;-74
2024/03/27 06:20:27;;;;;;;9.27;4.47;;;;;;;;;;5085677;28;20590;-75
2024/03/27 06:22:54;;;;;;;10.50;4.55;;;;;;;;;;5084973;28;20215;-74
2024/03/27 06:25:20;;;;;;;9.00;3.97;;;;;;;;;;5084311;28;20188;-74
2024/03/27 06:27:45;;;;;;;8.63;4.07;;;;;;;;;;5083695;28;20202;-73
2024/03/27 06:30:12;;;;;;;7.97;4.10;;;;;;;;;;5085783;28;20199;-73
2024/03/27 06:32:39;;;;;;;8.82;4.38;;;;;;;;;;5083789;28;20514;-73
2024/03/27 06:35:05;;;;;;;7.68;4.75;;;;;;;;;;5085005;28;20188;-73
2024/03/27 06:37:31;;;;;;;6.82;4.28;;;;;;;;;;5083833;28;20753;-73
2024/03/27 06:39:56;;;;;;;10.52;4.65;;;;;;;;;;5084671;28;20184;-73
2024/03/27 06:42:22;;;;;;;9.90;4.45;;;;;;;;;;5083264;28;20184;-73
2024/03/27 06:44:48;;;;;;;6.07;4.03;;;;;;;;;;5085097;28;20717;-74
2024/03/27 06:47:14;;;;;;;6.85;4.10;;;;;;;;;;5083411;28;20278;-73
2024/03/27 06:49:39;;;;;;;9.95;4.70;;;;;;;;;;5082745;28;20207;-73
2024/03/27 06:52:05;;;;;;;10.07;4.00;;;;;;;;;;5081995;28;20657;-73
2024/03/27 06:54:30;;;;;;;6.85;3.88;;;;;;;;;;5085622;28;20184;-73
2024/03/27 06:56:56;;;;;;;9.20;3.92;;;;;;;;;;5085095;28;20242;-72
2024/03/27 06:59:21;;;;;;;8.30;4.38;;;;;;;;;;5085302;28;20909;-73
2024/03/27 07:01:46;;;;;;;6.03;4.05;;;;;;;;;;5084133;28;20665;-73
2024/03/27 07:04:12;;;;;;;8.15;4.30;;;;;;;;;;5084870;28;20195;-73
2024/03/27 07:06:37;;;;;;;6.82;3.72;;;;;;;;;;5083971;28;20519;-73
2024/03/27 07:09:06;;;;;;;9.38;4.13;;;;;;;;;;5083140;28;20184;-73
2024/03/27 07:11:32;;;;;;;6.78;3.72;;;;;;;;;;5078267;28;20245;-75
2024/03/27 07:13:57;;;;;;;6.05;3.47;;;;;;;;;;5085891;28;20188;-73
2024/03/27 07:16:23;;;;;;;12.10;4.22;;;;;;;;;;5065537;28;20224;-73
2024/03/27 07:18:48;;;;;;;6.35;3.65;;;;;;;;;;5075968;28;20663;-72
2024/03/27 07:21:14;;;;;;;8.25;3.78;;;;;;;;;;5081197;28;20227;-73
2024/03/27 07:23:39;;;;;;;5.35;3.72;;;;;;;;;;5081540;28;20663;-73
2024/03/27 07:26:06;;;;;;;5.80;3.15;;;;;;;;;;5081735;28;20290;-73
2024/03/27 07:28:31;;;;;;;6.10;3.47;;;;;;;;;;5079857;28;20185;-73
2024/03/27 07:30:58;;;;;;;6.47;3.53;;;;;;;;;;5082649;28;20192;-72
2024/03/27 07:33:24;;;;;;;6.97;3.30;;;;;;;;;;5080504;28;20628;-73
2024/03/27 07:35:49;;;;;;;4.57;3.30;;;;;;;;;;5083692;28;20195;-72
2024/03/27 07:38:14;;;;;;;5.93;3.53;;;;;;;;;;5081908;28;20239;-72
2024/03/27 07:40:40;;;;;;;7.95;3.50;;;;;;;;;;5084337;28;20199;-72
2024/03/27 07:43:05;;;;;;;8.20;3.03;;;;;;;;;;5080750;28;20192;-71
2024/03/27 07:45:32;;;;;;;5.03;3.13;;;;;;;;;;5079832;28;20216;-71
2024/03/27 07:47:58;;;;;;;6.25;3.20;;;;;;;;;;5081253;28;20564;-72
2024/03/27 07:50:23;;;;;;;5.88;3.20;;;;;;;;;;5081718;28;20200;-72
2024/03/27 07:52:49;;;;;;;6.18;3.10;;;;;;;;;;5083756;28;20196;-72
2024/03/27 07:55:14;;;;;;;4.82;2.90;;;;;;;;;;5083100;28;21745;-71
2024/03/27 07:57:39;;;;;;;7.07;2.90;;;;;;;;;;5079920;28;20214;-72
2024/03/27 08:00:11;;;;;;;5.25;3.08;;;;;;;;;;5083140;28;20241;-72
2024/03/27 08:02:40;;;;;;;8.13;3.38;;;;;;;;;;5079897;28;20226;-71
2024/03/27 08:05:06;;;;;;;3.42;2.58;;;;;;;;;;5083216;28;20298;-71
2024/03/27 08:07:34;;;;;;;3.58;2.83;;;;;;;;;;5081940;28;20449;-71
2024/03/27 08:10:00;;;;;;;4.65;2.78;;;;;;;;;;5079573;28;20188;-71
2024/03/27 08:12:26;;;;;;;5.35;3.17;;;;;;;;;;5082223;28;20542;-72
2024/03/27 08:14:51;;;;;;;5.95;2.90;;;;;;;;;;5083380;28;20184;-72
2024/03/27 08:17:17;;;;;;;3.88;2.90;;;;;;;;;;5082330;28;20196;-72
2024/03/27 08:19:42;;;;;;;4.47;2.67;;;;;;;;;;5079838;28;20203;-72
2024/03/27 08:22:08;;;;;;;4.28;2.63;;;;;;;;;;5084858;28;20202;-72
2024/03/27 08:24:35;;;;;;;4.95;2.92;;;;;;;;;;5080439;28;20656;-71
2024/03/27 08:27:01;;;;;;;5.30;3.10;;;;;;;;;;5084299;28;20563;-71
2024/03/27 08:29:26;;;;;;;3.10;2.80;;;;;;;;;;5083352;28;20199;-71
2024/03/27 08:31:52;;;;;;;4.28;2.65;;;;;;;;;;5083749;28;20200;-71
2024/03/27 08:34:17;;;;;;;4.90;2.92;;;;;;;;;;5076456;28;20192;-71
2024/03/27 08:36:42;;;;;;;4.82;2.83;;;;;;;;;;5079413;28;20228;-72
2024/03/27 08:39:09;;;;;;;4.35;2.90;;;;;;;;;;5079562;28;20195;-71
2024/03/27 08:41:36;;;;;;;4.38;3.40;;;;;;;;;;5080010;28;20536;-71
2024/03/27 08:44:03;;;;;;;6.05;3.10;;;;;;;;;;5081019;28;20211;-71
2024/03/27 08:46:29;;;;;;;4.20;2.80;;;;;;;;;;5082634;28;20267;-70
2024/03/27 08:48:54;;;;;;;4.00;2.90;;;;;;;;;;5082978;28;20579;-70
2024/03/27 08:51:22;;;;;;;3.42;2.63;;;;;;;;;;5079278;28;20200;-72
2024/03/27 08:53:48;;;;;;;4.82;2.78;;;;;;;;;;5083872;28;20224;-71
2024/03/27 08:56:15;;;;;;;3.42;2.90;;;;;;;;;;5082250;28;20188;-71
2024/03/27 08:58:41;;;;;;;3.20;2.90;;;;;;;;;;5081285;28;20216;-71
2024/03/27 09:01:14;;;;;;;4.55;2.70;;;;;;;;;;5080848;28;20241;-71
2024/03/27 09:03:39;;;;;;;3.25;2.80;;;;;;;;;;5081592;28;20192;-71
2024/03/27 09:06:07;;;;;;;3.90;3.13;;;;;;;;;;5083342;28;20654;-70
2024/03/27 09:08:32;;;;;;;3.33;2.72;;;;;;;;;;5081727;28;20417;-71
2024/03/27 09:10:58;;;;;;;3.72;2.88;;;;;;;;;;5081618;28;20187;-71
2024/03/27 09:13:23;;;;;;;4.22;3.08;;;;;;;;;;5079904;28;20184;-71
2024/03/27 09:15:49;;;;;;;4.88;3.53;;;;;;;;;;5080941;28;20215;-72
2024/03/27 09:18:14;;;;;;;3.28;2.97;;;;;;;;;;5076413;28;20193;-71
2024/03/27 09:20:39;;;;;;;3.90;2.80;;;;;;;;;;5080714;28;20211;-71
2024/03/27 09:23:05;;;;;;;3.72;2.90;;;;;;;;;;5081436;28;20192;-71
2024/03/27 09:25:30;;;;;;;3.88;2.95;;;;;;;;;;5082158;28;20221;-72
2024/03/27 09:27:56;;;;;;;4.72;3.35;;;;;;;;;;5083965;28;20256;-72
2024/03/27 09:30:21;;;;;;;4.47;3.08;;;;;;;;;;5079119;28;20277;-71
2024/03/27 09:32:47;;;;;;;3.33;3.00;;;;;;;;;;5081187;28;20475;-71
2024/03/27 09:35:12;;;;;;;3.10;2.80;;;;;;;;;;5082629;28;20615;-71
2024/03/27 09:37:37;;;;;;;3.92;3.38;;;;;;;;;;5082883;28;20705;-71
2024/03/27 09:40:03;;;;;;;6.40;4.47;;;;;;;;;;5083888;28;20211;-71
2024/03/27 09:42:30;;;;;;;5.97;4.50;;;;;;;;;;5082759;28;20535;-71
2024/03/27 09:44:56;;;;;;;9.25;5.43;;;;;;;;;;5085208;28;20305;-71
2024/03/27 09:47:23;;;;;;;6.80;5.15;;;;;;;;;;5085921;28;20223;-71
2024/03/27 09:49:49;;;;;;;6.68;5.18;;;;;;;;;;5085499;28;20202;-71
2024/03/27 09:52:15;;;;;;;6.50;4.93;;;;;;;;;;5084449;28;20180;-72
2024/03/27 09:54:42;;;;;;;5.38;4.72;;;;;;;;;;5087027;28;20271;-71
2024/03/27 09:57:10;;;;;;;5.75;4.82;;;;;;;;;;5085251;28;20204;-71
2024/03/27 09:59:36;;;;;;;5.60;5.00;;;;;;;;;;5077316;28;20527;-71
2024/03/27 10:02:06;;;;;;;5.20;4.70;;;;;;;;;;5083040;28;20652;-71
2024/03/27 10:04:33;;;;;;;5.53;4.47;;;;;;;;;;5080150;28;20270;-71
2024/03/27 10:06:58;;;;;;;5.72;5.03;;;;;;;;;;5085418;28;20334;-71
2024/03/27 10:09:24;;;;;;;4.80;4.30;;;;;;;;;;5086184;28;20266;-71
2024/03/27 10:11:49;;;;;;;5.10;4.60;;;;;;;;;;5086092;28;20550;-71
2024/03/27 10:14:15;;;;;;;5.03;4.53;;;;;;;;;;5085055;28;20220;-71
2024/03/27 10:16:40;;;;;;;5.72;4.80;;;;;;;;;;5083250;28;20230;-71
2024/03/27 10:19:07;;;;;;;8.75;7.00;;;;;;;;;;5085211;28;20208;-71
2024/03/27 10:21:33;;;;;;;10.63;7.60;;;;;;;;;;5084941;28;20242;-71
2024/03/27 10:23:59;;;;;;;11.80;8.80;;;;;;;;;;5086261;28;20188;-70
2024/03/27 10:26:29;;;;;;;10.45;8.82;;;;;;;;;;5085730;28;20187;-70
2024/03/27 10:28:56;;;;;;;11.15;9.02;;;;;;;;;;5109623;27;20180;-71
2024/03/27 10:31:21;;;;;;;15.07;8.95;;;;;;;;;;5086025;28;20623;-71
2024/03/27 10:33:47;;;;;;;11.35;8.90;;;;;;;;;;5083606;28;20740;-72
2024/03/27 10:36:26;;;;;;;10.65;8.60;;;;;;;;;;5085702;28;20225;-72
2024/03/27 10:38:58;;;;;;;12.23;8.32;;;;;;;;;;5083880;28;20212;-71
2024/03/27 10:41:26;;;;;;;10.73;8.18;;;;;;;;;;5085235;28;20660;-71
2024/03/27 10:43:56;;;;;;;10.70;8.25;;;;;;;;;;5085435;28;20185;-71
2024/03/27 10:46:22;;;;;;;11.00;8.68;;;;;;;;;;5085661;28;20196;-71
2024/03/27 10:48:50;;;;;;;10.88;8.60;;;;;;;;;;5085437;28;20218;-72
2024/03/27 10:51:21;;;;;;;10.75;8.43;;;;;;;;;;5086137;28;20226;-71
2024/03/27 10:53:47;;;;;;;9.45;7.85;;;;;;;;;;5083853;28;20511;-72
2024/03/27 10:56:15;;;;;;;10.30;7.68;;;;;;;;;;5084195;28;20196;-72
2024/03/27 10:58:42;;;;;;;9.23;7.32;;;;;;;;;;5084776;28;20216;-72
2024/03/27 11:01:08;;;;;;;9.70;7.28;;;;;;;;;;5082382;28;20274;-72
2024/03/27 11:03:38;;;;;;;9.10;7.18;;;;;;;;;;5084401;28;20192;-72
2024/03/27 11:06:03;;;;;;;10.60;8.13;;;;;;;;;;5085040;28;20188;-72
2024/03/27 11:08:30;;;;;;;11.90;7.47;;;;;;;;;;5083161;28;20176;-71
2024/03/27 11:11:09;;;;;;;9.52;7.53;;;;;;;;;;5085707;28;20199;-72
2024/03/27 11:13:35;;;;;;;9.35;6.97;;;;;;;;;;5085232;28;20246;-72
2024/03/27 11:16:01;;;;;;;9.65;7.25;;;;;;;;;;5084569;28;20366;-72
2024/03/27 11:18:32;;;;;;;11.13;7.88;;;;;;;;;;5079246;28;20714;-72
2024/03/27 11:20:58;;;;;;;10.60;7.90;;;;;;;;;;5084790;28;20191;-71
2024/03/27 11:23:33;;;;;;;9.25;7.55;;;;;;;;;;5084625;28;20612;-72
2024/03/27 11:26:00;;;;;;;9.70;7.80;;;;;;;;;;5085311;28;20277;-71
2024/03/27 11:28:27;;;;;;;13.48;8.18;;;;;;;;;;5085199;28;20206;-72
2024/03/27 11:30:55;;;;;;;12.55;8.27;;;;;;;;;;5083564;28;20192;-72
2024/03/27 11:33:21;;;;;;;10.60;7.82;;;;;;;;;;5085404;28;20326;-72
2024/03/27 11:35:51;;;;;;;10.40;8.60;;;;;;;;;;5085169;28;20192;-72
2024/03/27 11:38:21;;;;;;;11.50;8.35;;;;;;;;;;5083478;28;20228;-72
2024/03/27 11:40:53;;;;;;;9.88;8.00;;;;;;;;;;5078905;28;20227;-72
2024/03/27 11:43:20;;;;;;;11.13;7.85;;;;;;;;;;5085788;28;20187;-72
2024/03/27 11:45:47;;;;;;;9.30;6.35;;;;;;;;;;5083879;28;20180;-71
2024/03/27 11:48:13;;;;;;;7.25;5.55;;;;;;;;;;5081184;28;20184;-71
2024/03/27 11:50:40;;;;;;;6.32;5.15;;;;;;;;;;5080477;28;20200;-71
2024/03/27 11:53:07;;;;;;;7.53;5.57;;;;;;;;;;5082754;28;20274;-72
2024/03/27 11:55:32;;;;;;;6.72;5.43;;;;;;;;;;5080850;28;20190;-71
2024/03/27 11:57:58;;;;;;;6.35;5.35;;;;;;;;;;5081823;28;20545;-72
2024/03/27 12:00:23;;;;;;;9.00;6.15;;;;;;;;;;5084250;28;20240;-72
2024/03/27 12:02:49;;;;;;;7.68;5.65;;;;;;;;;;5081499;28;20196;-72
2024/03/27 12:05:14;;;;;;;10.07;6.30;;;;;;;;;;5082123;28;20663;-72
2024/03/27 12:07:40;;;;;;;7.88;6.07;;;;;;;;;;5083262;28;20180;-72
2024/03/27 12:10:09;;;;;;;8.95;6.45;;;;;;;;;;5084341;28;20196;-72
2024/03/27 12:12:35;;;;;;;10.25;7.60;;;;;;;;;;5080140;28;20196;-72
2024/03/27 12:15:00;;;;;;;10.05;7.22;;;;;;;;;;5081172;28;20207;-72
2024/03/27 12:17:39;;;;;;;10.52;7.78;;;;;;;;;;5081188;28;20710;-72
2024/03/27 12:20:05;;;;;;;9.68;7.40;;;;;;;;;;5082693;28;20260;-71
2024/03/27 12:22:32;;;;;;;10.73;8.18;;;;;;;;;;5083544;28;20663;-73
2024/03/27 12:24:57;;;;;;;14.43;8.68;;;;;;;;;;5082673;28;20228;-72
2024/03/27 12:27:29;;;;;;;10.73;8.48;;;;;;;;;;5083425;28;20212;-71
2024/03/27 12:29:55;;;;;;;11.98;8.57;;;;;;;;;;5082600;28;20188;-72
2024/03/27 12:32:21;;;;;;;13.57;8.25;;;;;;;;;;5082964;28;20198;-72
2024/03/27 12:34:48;;;;;;;11.98;8.98;;;;;;;;;;5084402;28;20671;-72
2024/03/27 12:37:14;;;;;;;11.38;8.90;;;;;;;;;;5082796;28;20239;-72
2024/03/27 12:39:40;;;;;;;11.90;9.57;;;;;;;;;;5083068;28;20187;-72
2024/03/27 12:42:06;;;;;;;17.42;9.82;;;;;;;;;;5084204;28;20571;-72
2024/03/27 12:44:31;;;;;;;13.80;10.48;;;;;;;;;;5081771;28;20202;-72
2024/03/27 12:46:57;;;;;;;14.10;10.27;;;;;;;;;;5082589;28;20588;-72
2024/03/27 12:49:23;;;;;;;14.35;10.45;;;;;;;;;;5082971;28;20539;-73
2024/03/27 12:51:48;;;;;;;11.20;8.75;;;;;;;;;;5083988;28;20504;-72
2024/03/27 12:54:13;;;;;;;11.15;8.25;;;;;;;;;;5080743;28;20241;-73
2024/03/27 12:56:39;;;;;;;10.82;8.15;;;;;;;;;;5084763;28;20188;-73
2024/03/27 12:59:05;;;;;;;9.93;8.02;;;;;;;;;;5082869;28;20236;-73
2024/03/27 13:01:30;;;;;;;10.88;7.95;;;;;;;;;;5080533;28;20180;-72
2024/03/27 13:03:55;;;;;;;8.80;7.07;;;;;;;;;;5083857;28;20294;-73
2024/03/27 13:06:21;;;;;;;10.23;6.55;;;;;;;;;;5080579;28;20234;-73
2024/03/27 13:08:46;;;;;;;7.78;5.75;;;;;;;;;;5074729;28;20506;-73
2024/03/27 13:11:12;;;;;;;8.10;6.30;;;;;;;;;;5078880;28;20196;-73
2024/03/27 13:13:37;;;;;;;6.82;5.68;;;;;;;;;;5082266;28;20187;-73
2024/03/27 13:16:03;;;;;;;7.88;5.28;;;;;;;;;;5080286;28;20188;-72
2024/03/27 13:18:28;;;;;;;6.30;4.55;;;;;;;;;;5079392;28;20231;-73
2024/03/27 13:20:54;;;;;;;6.93;4.47;;;;;;;;;;5081879;28;20271;-72
2024/03/27 13:23:19;;;;;;;6.35;4.55;;;;;;;;;;5084890;28;20219;-73
2024/03/27 13:25:45;;;;;;;6.45;4.07;;;;;;;;;;5079198;28;20282;-73
2024/03/27 13:28:10;;;;;;;6.70;4.70;;;;;;;;;;5105027;27;20645;-73
2024/03/27 13:30:35;;;;;;;5.55;4.35;;;;;;;;;;5084417;28;20196;-73
2024/03/27 13:33:01;;;;;;;5.00;3.72;;;;;;;;;;5084646;28;20630;-73
2024/03/27 13:35:27;;;;;;;6.78;3.60;;;;;;;;;;5084912;28;20188;-73
2024/03/27 13:37:52;;;;;;;5.18;3.40;;;;;;;;;;5083242;28;20220;-73
2024/03/27 13:40:18;;;;;;;3.80;3.30;;;;;;;;;;5084808;28;20188;-72
2024/03/27 13:42:44;;;;;;;4.78;3.05;;;;;;;;;;5084005;28;20643;-72
2024/03/27 13:45:10;;;;;;;4.80;3.15;;;;;;;;;;5084046;28;20315;-72
2024/03/27 13:47:36;;;;;;;4.55;3.38;;;;;;;;;;5085040;28;20558;-72
2024/03/27 13:50:04;;;;;;;6.68;2.90;;;;;;;;;;5081642;28;20192;-72
2024/03/27 13:52:29;;;;;;;2.92;2.47;;;;;;;;;;5086130;28;20192;-72
2024/03/27 13:54:55;;;;;;;3.15;2.85;;;;;;;;;;5087465;28;20264;-72
2024/03/27 13:57:20;;;;;;;3.22;2.92;;;;;;;;;;5084434;28;20699;-72
2024/03/27 13:59:46;;;;;;;4.85;2.65;;;;;;;;;;5084278;28;20183;-72
2024/03/27 14:02:11;;;;;;;3.42;2.70;;;;;;;;;;5073626;28;20198;-73
2024/03/27 14:04:36;;;;;;;3.40;2.70;;;;;;;;;;5085235;28;20191;-72
2024/03/27 14:07:02;;;;;;;4.07;2.63;;;;;;;;;;5084215;28;20192;-72
2024/03/27 14:09:27;;;;;;;3.58;2.30;;;;;;;;;;5084215;28;20664;-72
2024/03/27 14:11:53;;;;;;;4.75;2.63;;;;;;;;;;5083555;28;20180;-72
2024/03/27 14:14:18;;;;;;;3.28;2.10;;;;;;;;;;5081223;28;20230;-72
2024/03/27 14:16:43;;;;;;;3.53;1.98;;;;;;;;;;5083180;28;20291;-71
2024/03/27 14:19:10;;;;;;;2.17;1.80;;;;;;;;;;5084948;28;20242;-71
2024/03/27 14:21:35;;;;;;;2.50;1.95;;;;;;;;;;5083700;28;20198;-71
2024/03/27 14:24:01;;;;;;;3.88;2.33;;;;;;;;;;5083025;28;20581;-71
2024/03/27 14:26:26;;;;;;;3.72;2.20;;;;;;;;;;5083381;28;21344;-71
2024/03/27 14:28:52;;;;;;;3.45;2.10;;;;;;;;;;5077335;28;20563;-71
2024/03/27 14:31:17;;;;;;;3.90;2.30;;;;;;;;;;5083226;28;20192;-71
2024/03/27 14:33:43;;;;;;;2.97;2.60;;;;;;;;;;5084966;28;20228;-71